sensor_id;sensor_type;location;lat;lon;timestamp;P1;durP1;ratioP1;P2;durP2;ratioP2
17151;SDS011;8691;50.828;4.700;2022-08-01T00:01:16;1.50;;;1.13;;
17151;SDS011;8691;50.828;4.700;2022-08-01T00:03:42;4.00;;;1.17;;
17151;SDS011;8691;50.828;4.700;2022-08-01T00:06:09;1.37;;;1.00;;
17151;SDS011;8691;50.828;4.700;2022-08-01T00:08:36;2.10;;;1.20;;
17151;SDS011;8691;50.828;4.700;2022-08-01T00:11:02;1.70;;;1.10;;
17151;SDS011;8691;50.828;4.700;2022-08-01T00:13:30;1.90;;;1.20;;
17151;SDS011;8691;50.828;4.700;2022-08-01T00:15:56;2.03;;;1.10;;
17151;SDS011;8691;50.828;4.700;2022-08-01T00:18:24;3.13;;;1.27;;
17151;SDS011;8691;50.828;4.700;2022-08-01T00:20:50;2.83;;;1.10;;
17151;SDS011;8691;50.828;4.700;2022-08-01T00:23:18;1.53;;;1.20;;
17151;SDS011;8691;50.828;4.700;2022-08-01T00:25:44;2.20;;;1.20;;
17151;SDS011;8691;50.828;4.700;2022-08-01T00:28:11;2.07;;;1.20;;
17151;SDS011;8691;50.828;4.700;2022-08-01T00:30:38;2.78;;;1.48;;
17151;SDS011;8691;50.828;4.700;2022-08-01T00:33:05;2.97;;;1.40;;
17151;SDS011;8691;50.828;4.700;2022-08-01T00:35:32;4.97;;;2.07;;
17151;SDS011;8691;50.828;4.700;2022-08-01T00:37:59;2.55;;;1.67;;
17151;SDS011;8691;50.828;4.700;2022-08-01T00:40:25;2.27;;;1.60;;
17151;SDS011;8691;50.828;4.700;2022-08-01T00:42:52;3.70;;;1.88;;
17151;SDS011;8691;50.828;4.700;2022-08-01T00:45:19;3.65;;;1.90;;
17151;SDS011;8691;50.828;4.700;2022-08-01T00:47:46;5.77;;;2.13;;
17151;SDS011;8691;50.828;4.700;2022-08-01T00:50:12;3.27;;;1.80;;
17151;SDS011;8691;50.828;4.700;2022-08-01T00:52:39;4.05;;;2.12;;
17151;SDS011;8691;50.828;4.700;2022-08-01T00:55:06;4.03;;;2.40;;
17151;SDS011;8691;50.828;4.700;2022-08-01T00:57:33;4.13;;;2.40;;
17151;SDS011;8691;50.828;4.700;2022-08-01T01:00:00;4.10;;;2.10;;
17151;SDS011;8691;50.828;4.700;2022-08-01T01:02:27;3.77;;;2.20;;
17151;SDS011;8691;50.828;4.700;2022-08-01T01:04:54;3.40;;;2.50;;
17151;SDS011;8691;50.828;4.700;2022-08-01T01:10:15;3.20;;;2.30;;
17151;SDS011;8691;50.828;4.700;2022-08-01T01:12:42;4.23;;;2.60;;
17151;SDS011;8691;50.828;4.700;2022-08-01T01:20:30;5.87;;;3.00;;
17151;SDS011;8691;50.828;4.700;2022-08-01T01:23:05;4.40;;;2.77;;
17151;SDS011;8691;50.828;4.700;2022-08-01T01:30:53;5.33;;;2.93;;
17151;SDS011;8691;50.828;4.700;2022-08-01T01:33:19;7.33;;;3.13;;
17151;SDS011;8691;50.828;4.700;2022-08-01T01:35:47;5.03;;;2.80;;
17151;SDS011;8691;50.828;4.700;2022-08-01T01:38:22;4.60;;;2.70;;
17151;SDS011;8691;50.828;4.700;2022-08-01T01:40:49;5.53;;;2.70;;
17151;SDS011;8691;50.828;4.700;2022-08-01T01:43:16;3.93;;;3.20;;
17151;SDS011;8691;50.828;4.700;2022-08-01T01:45:43;5.03;;;3.07;;
17151;SDS011;8691;50.828;4.700;2022-08-01T01:48:10;5.40;;;2.97;;
17151;SDS011;8691;50.828;4.700;2022-08-01T01:50:36;5.20;;;3.27;;
17151;SDS011;8691;50.828;4.700;2022-08-01T01:53:03;3.33;;;2.80;;
17151;SDS011;8691;50.828;4.700;2022-08-01T01:55:29;5.90;;;3.30;;
17151;SDS011;8691;50.828;4.700;2022-08-01T01:57:56;4.63;;;3.03;;
17151;SDS011;8691;50.828;4.700;2022-08-01T02:00:23;3.70;;;2.93;;
17151;SDS011;8691;50.828;4.700;2022-08-01T02:02:49;3.57;;;2.77;;
17151;SDS011;8691;50.828;4.700;2022-08-01T02:05:16;3.90;;;2.80;;
17151;SDS011;8691;50.828;4.700;2022-08-01T02:07:43;3.93;;;2.83;;
17151;SDS011;8691;50.828;4.700;2022-08-01T02:10:09;3.60;;;2.53;;
17151;SDS011;8691;50.828;4.700;2022-08-01T02:12:36;4.27;;;2.70;;
17151;SDS011;8691;50.828;4.700;2022-08-01T02:15:03;5.53;;;3.07;;
17151;SDS011;8691;50.828;4.700;2022-08-01T02:17:31;3.87;;;2.70;;
17151;SDS011;8691;50.828;4.700;2022-08-01T02:19:57;5.20;;;2.70;;
17151;SDS011;8691;50.828;4.700;2022-08-01T02:22:37;6.07;;;2.70;;
17151;SDS011;8691;50.828;4.700;2022-08-01T02:25:02;4.57;;;2.40;;
17151;SDS011;8691;50.828;4.700;2022-08-01T02:27:33;3.73;;;2.50;;
17151;SDS011;8691;50.828;4.700;2022-08-01T02:30:04;4.33;;;2.47;;
17151;SDS011;8691;50.828;4.700;2022-08-01T02:32:31;3.07;;;2.17;;
17151;SDS011;8691;50.828;4.700;2022-08-01T02:34:57;4.13;;;2.40;;
17151;SDS011;8691;50.828;4.700;2022-08-01T02:37:24;6.03;;;2.90;;
17151;SDS011;8691;50.828;4.700;2022-08-01T02:39:52;3.53;;;2.55;;
17151;SDS011;8691;50.828;4.700;2022-08-01T02:42:18;4.20;;;2.83;;
17151;SDS011;8691;50.828;4.700;2022-08-01T02:44:44;5.20;;;2.63;;
17151;SDS011;8691;50.828;4.700;2022-08-01T02:47:11;6.13;;;2.60;;
17151;SDS011;8691;50.828;4.700;2022-08-01T02:49:42;2.70;;;2.27;;
17151;SDS011;8691;50.828;4.700;2022-08-01T02:52:10;4.45;;;3.05;;
17151;SDS011;8691;50.828;4.700;2022-08-01T02:54:36;5.37;;;3.17;;
17151;SDS011;8691;50.828;4.700;2022-08-01T02:57:04;6.13;;;3.77;;
17151;SDS011;8691;50.828;4.700;2022-08-01T02:59:30;4.77;;;3.87;;
17151;SDS011;8691;50.828;4.700;2022-08-01T03:01:57;5.37;;;3.87;;
17151;SDS011;8691;50.828;4.700;2022-08-01T03:04:23;5.93;;;3.93;;
17151;SDS011;8691;50.828;4.700;2022-08-01T03:06:50;6.00;;;4.47;;
17151;SDS011;8691;50.828;4.700;2022-08-01T03:09:16;4.73;;;4.23;;
17151;SDS011;8691;50.828;4.700;2022-08-01T03:11:44;4.90;;;4.40;;
17151;SDS011;8691;50.828;4.700;2022-08-01T03:14:11;5.40;;;3.97;;
17151;SDS011;8691;50.828;4.700;2022-08-01T03:16:38;5.67;;;4.23;;
17151;SDS011;8691;50.828;4.700;2022-08-01T03:19:04;6.20;;;3.97;;
17151;SDS011;8691;50.828;4.700;2022-08-01T03:21:32;5.73;;;3.90;;
17151;SDS011;8691;50.828;4.700;2022-08-01T03:23:59;5.60;;;3.97;;
17151;SDS011;8691;50.828;4.700;2022-08-01T03:26:26;5.77;;;4.10;;
17151;SDS011;8691;50.828;4.700;2022-08-01T03:28:52;6.50;;;4.47;;
17151;SDS011;8691;50.828;4.700;2022-08-01T03:31:20;5.93;;;4.30;;
17151;SDS011;8691;50.828;4.700;2022-08-01T03:33:46;9.53;;;4.87;;
17151;SDS011;8691;50.828;4.700;2022-08-01T03:36:14;6.47;;;5.30;;
17151;SDS011;8691;50.828;4.700;2022-08-01T03:38:40;11.57;;;5.50;;
17151;SDS011;8691;50.828;4.700;2022-08-01T03:41:18;10.13;;;5.07;;
17151;SDS011;8691;50.828;4.700;2022-08-01T03:43:57;6.87;;;5.57;;
17151;SDS011;8691;50.828;4.700;2022-08-01T03:46:26;7.77;;;5.63;;
17151;SDS011;8691;50.828;4.700;2022-08-01T03:48:48;11.60;;;6.30;;
17151;SDS011;8691;50.828;4.700;2022-08-01T03:51:15;7.13;;;5.87;;
17151;SDS011;8691;50.828;4.700;2022-08-01T03:53:42;10.03;;;5.97;;
17151;SDS011;8691;50.828;4.700;2022-08-01T03:56:08;7.80;;;6.10;;
17151;SDS011;8691;50.828;4.700;2022-08-01T03:58:36;10.47;;;7.07;;
17151;SDS011;8691;50.828;4.700;2022-08-01T04:01:02;9.07;;;5.97;;
17151;SDS011;8691;50.828;4.700;2022-08-01T04:03:29;8.70;;;6.80;;
17151;SDS011;8691;50.828;4.700;2022-08-01T04:05:56;11.50;;;6.17;;
17151;SDS011;8691;50.828;4.700;2022-08-01T04:08:23;10.03;;;6.47;;
17151;SDS011;8691;50.828;4.700;2022-08-01T04:10:49;7.53;;;5.80;;
17151;SDS011;8691;50.828;4.700;2022-08-01T04:13:16;12.30;;;8.80;;
17151;SDS011;8691;50.828;4.700;2022-08-01T04:15:43;12.90;;;10.20;;
17151;SDS011;8691;50.828;4.700;2022-08-01T04:18:09;13.87;;;11.20;;
17151;SDS011;8691;50.828;4.700;2022-08-01T04:20:36;16.13;;;11.97;;
17151;SDS011;8691;50.828;4.700;2022-08-01T04:23:03;19.73;;;12.17;;
17151;SDS011;8691;50.828;4.700;2022-08-01T04:25:33;17.37;;;12.27;;
17151;SDS011;8691;50.828;4.700;2022-08-01T04:28:02;15.87;;;12.50;;
17151;SDS011;8691;50.828;4.700;2022-08-01T04:30:30;15.53;;;12.43;;
17151;SDS011;8691;50.828;4.700;2022-08-01T04:32:55;15.63;;;12.87;;
17151;SDS011;8691;50.828;4.700;2022-08-01T04:35:22;18.33;;;13.07;;
17151;SDS011;8691;50.828;4.700;2022-08-01T04:37:49;17.83;;;12.60;;
17151;SDS011;8691;50.828;4.700;2022-08-01T04:40:15;23.17;;;14.43;;
17151;SDS011;8691;50.828;4.700;2022-08-01T04:42:42;20.23;;;16.27;;
17151;SDS011;8691;50.828;4.700;2022-08-01T04:45:09;19.67;;;16.30;;
17151;SDS011;8691;50.828;4.700;2022-08-01T04:47:36;19.10;;;16.10;;
17151;SDS011;8691;50.828;4.700;2022-08-01T04:50:06;19.73;;;14.90;;
17151;SDS011;8691;50.828;4.700;2022-08-01T04:52:36;16.23;;;13.50;;
17151;SDS011;8691;50.828;4.700;2022-08-01T04:54:59;17.53;;;13.93;;
17151;SDS011;8691;50.828;4.700;2022-08-01T04:57:26;16.97;;;13.43;;
17151;SDS011;8691;50.828;4.700;2022-08-01T04:59:52;18.50;;;14.00;;
17151;SDS011;8691;50.828;4.700;2022-08-01T05:02:19;16.23;;;14.20;;
17151;SDS011;8691;50.828;4.700;2022-08-01T05:04:45;17.03;;;13.90;;
17151;SDS011;8691;50.828;4.700;2022-08-01T05:07:12;16.67;;;14.10;;
17151;SDS011;8691;50.828;4.700;2022-08-01T05:09:39;16.20;;;13.47;;
17151;SDS011;8691;50.828;4.700;2022-08-01T05:12:05;18.93;;;13.60;;
17151;SDS011;8691;50.828;4.700;2022-08-01T05:14:32;16.97;;;13.53;;
17151;SDS011;8691;50.828;4.700;2022-08-01T05:17:03;18.00;;;13.73;;
17151;SDS011;8691;50.828;4.700;2022-08-01T05:19:26;18.20;;;14.47;;
17151;SDS011;8691;50.828;4.700;2022-08-01T05:21:53;20.03;;;14.30;;
17151;SDS011;8691;50.828;4.700;2022-08-01T05:24:20;19.10;;;14.07;;
17151;SDS011;8691;50.828;4.700;2022-08-01T05:26:47;16.47;;;12.80;;
17151;SDS011;8691;50.828;4.700;2022-08-01T05:29:14;15.67;;;13.20;;
17151;SDS011;8691;50.828;4.700;2022-08-01T05:31:41;13.70;;;12.30;;
17151;SDS011;8691;50.828;4.700;2022-08-01T05:34:07;14.50;;;12.53;;
17151;SDS011;8691;50.828;4.700;2022-08-01T05:36:34;16.57;;;11.83;;
17151;SDS011;8691;50.828;4.700;2022-08-01T05:39:01;14.13;;;12.63;;
17151;SDS011;8691;50.828;4.700;2022-08-01T05:41:27;15.60;;;12.60;;
17151;SDS011;8691;50.828;4.700;2022-08-01T05:43:54;13.97;;;12.10;;
17151;SDS011;8691;50.828;4.700;2022-08-01T05:46:20;16.60;;;13.30;;
17151;SDS011;8691;50.828;4.700;2022-08-01T05:48:47;14.87;;;13.20;;
17151;SDS011;8691;50.828;4.700;2022-08-01T05:51:14;14.93;;;13.33;;
17151;SDS011;8691;50.828;4.700;2022-08-01T05:53:41;14.33;;;12.83;;
17151;SDS011;8691;50.828;4.700;2022-08-01T05:56:09;16.53;;;13.50;;
17151;SDS011;8691;50.828;4.700;2022-08-01T05:58:35;15.27;;;13.20;;
17151;SDS011;8691;50.828;4.700;2022-08-01T06:01:02;16.40;;;12.93;;
17151;SDS011;8691;50.828;4.700;2022-08-01T06:03:29;17.13;;;13.07;;
17151;SDS011;8691;50.828;4.700;2022-08-01T06:05:56;15.93;;;13.00;;
17151;SDS011;8691;50.828;4.700;2022-08-01T06:08:23;15.77;;;13.20;;
17151;SDS011;8691;50.828;4.700;2022-08-01T06:10:50;16.53;;;12.97;;
17151;SDS011;8691;50.828;4.700;2022-08-01T06:13:16;17.17;;;12.63;;
17151;SDS011;8691;50.828;4.700;2022-08-01T06:15:44;16.07;;;12.80;;
17151;SDS011;8691;50.828;4.700;2022-08-01T06:18:11;14.67;;;13.10;;
17151;SDS011;8691;50.828;4.700;2022-08-01T06:20:37;14.10;;;12.60;;
17151;SDS011;8691;50.828;4.700;2022-08-01T06:23:04;14.47;;;11.50;;
17151;SDS011;8691;50.828;4.700;2022-08-01T06:25:30;12.57;;;11.13;;
17151;SDS011;8691;50.828;4.700;2022-08-01T06:27:58;11.83;;;10.60;;
17151;SDS011;8691;50.828;4.700;2022-08-01T06:30:25;12.80;;;10.63;;
17151;SDS011;8691;50.828;4.700;2022-08-01T06:32:51;10.90;;;9.80;;
17151;SDS011;8691;50.828;4.700;2022-08-01T06:35:18;11.33;;;10.10;;
17151;SDS011;8691;50.828;4.700;2022-08-01T06:37:45;11.70;;;9.37;;
17151;SDS011;8691;50.828;4.700;2022-08-01T06:40:13;10.47;;;9.30;;
17151;SDS011;8691;50.828;4.700;2022-08-01T06:42:39;11.20;;;9.70;;
17151;SDS011;8691;50.828;4.700;2022-08-01T06:45:06;11.33;;;9.70;;
17151;SDS011;8691;50.828;4.700;2022-08-01T06:47:32;10.60;;;9.50;;
17151;SDS011;8691;50.828;4.700;2022-08-01T06:49:59;9.93;;;8.90;;
17151;SDS011;8691;50.828;4.700;2022-08-01T06:52:26;9.03;;;7.50;;
17151;SDS011;8691;50.828;4.700;2022-08-01T06:54:52;8.87;;;7.67;;
17151;SDS011;8691;50.828;4.700;2022-08-01T06:57:20;9.38;;;8.40;;
17151;SDS011;8691;50.828;4.700;2022-08-01T06:59:47;7.50;;;6.60;;
17151;SDS011;8691;50.828;4.700;2022-08-01T07:02:14;8.57;;;6.87;;
17151;SDS011;8691;50.828;4.700;2022-08-01T07:04:40;8.00;;;6.63;;
17151;SDS011;8691;50.828;4.700;2022-08-01T07:07:08;7.40;;;6.67;;
17151;SDS011;8691;50.828;4.700;2022-08-01T07:09:34;8.00;;;6.67;;
17151;SDS011;8691;50.828;4.700;2022-08-01T07:12:01;8.50;;;5.93;;
17151;SDS011;8691;50.828;4.700;2022-08-01T07:14:28;8.10;;;5.73;;
17151;SDS011;8691;50.828;4.700;2022-08-01T07:16:54;7.63;;;5.80;;
17151;SDS011;8691;50.828;4.700;2022-08-01T07:19:21;6.30;;;5.63;;
17151;SDS011;8691;50.828;4.700;2022-08-01T07:21:48;9.47;;;5.87;;
17151;SDS011;8691;50.828;4.700;2022-08-01T07:24:14;7.00;;;5.10;;
17151;SDS011;8691;50.828;4.700;2022-08-01T07:26:41;5.63;;;4.77;;
17151;SDS011;8691;50.828;4.700;2022-08-01T07:29:07;6.33;;;4.67;;
17151;SDS011;8691;50.828;4.700;2022-08-01T07:31:34;5.23;;;4.73;;
17151;SDS011;8691;50.828;4.700;2022-08-01T07:34:01;5.17;;;4.67;;
17151;SDS011;8691;50.828;4.700;2022-08-01T07:36:28;4.50;;;4.10;;
17151;SDS011;8691;50.828;4.700;2022-08-01T07:38:55;5.50;;;4.03;;
17151;SDS011;8691;50.828;4.700;2022-08-01T07:41:22;6.40;;;4.33;;
17151;SDS011;8691;50.828;4.700;2022-08-01T07:43:49;5.43;;;4.60;;
17151;SDS011;8691;50.828;4.700;2022-08-01T07:46:16;7.30;;;4.83;;
17151;SDS011;8691;50.828;4.700;2022-08-01T07:48:43;5.13;;;4.47;;
17151;SDS011;8691;50.828;4.700;2022-08-01T07:51:10;5.67;;;5.17;;
17151;SDS011;8691;50.828;4.700;2022-08-01T07:53:37;5.10;;;4.60;;
17151;SDS011;8691;50.828;4.700;2022-08-01T07:56:04;5.07;;;4.60;;
17151;SDS011;8691;50.828;4.700;2022-08-01T07:58:33;5.73;;;4.80;;
17151;SDS011;8691;50.828;4.700;2022-08-01T08:00:59;4.67;;;4.33;;
17151;SDS011;8691;50.828;4.700;2022-08-01T08:03:27;6.63;;;4.70;;
17151;SDS011;8691;50.828;4.700;2022-08-01T08:05:53;5.10;;;4.70;;
17151;SDS011;8691;50.828;4.700;2022-08-01T08:08:21;5.27;;;4.77;;
17151;SDS011;8691;50.828;4.700;2022-08-01T08:10:47;5.40;;;4.27;;
17151;SDS011;8691;50.828;4.700;2022-08-01T08:13:15;5.20;;;4.53;;
17151;SDS011;8691;50.828;4.700;2022-08-01T08:15:41;4.33;;;3.90;;
17151;SDS011;8691;50.828;4.700;2022-08-01T08:18:09;4.97;;;4.00;;
17151;SDS011;8691;50.828;4.700;2022-08-01T08:20:35;4.97;;;3.97;;
17151;SDS011;8691;50.828;4.700;2022-08-01T08:23:03;4.87;;;4.20;;
17151;SDS011;8691;50.828;4.700;2022-08-01T08:25:29;6.30;;;3.77;;
17151;SDS011;8691;50.828;4.700;2022-08-01T08:27:57;4.57;;;3.90;;
17151;SDS011;8691;50.828;4.700;2022-08-01T08:30:23;5.73;;;3.90;;
17151;SDS011;8691;50.828;4.700;2022-08-01T08:32:51;4.83;;;3.50;;
17151;SDS011;8691;50.828;4.700;2022-08-01T08:35:17;4.23;;;3.10;;
17151;SDS011;8691;50.828;4.700;2022-08-01T08:37:44;3.38;;;3.08;;
17151;SDS011;8691;50.828;4.700;2022-08-01T08:40:11;4.75;;;2.85;;
17151;SDS011;8691;50.828;4.700;2022-08-01T08:42:39;4.55;;;2.90;;
17151;SDS011;8691;50.828;4.700;2022-08-01T08:45:06;3.50;;;2.90;;
17151;SDS011;8691;50.828;4.700;2022-08-01T08:47:33;3.20;;;3.00;;
17151;SDS011;8691;50.828;4.700;2022-08-01T08:50:00;2.88;;;2.67;;
17151;SDS011;8691;50.828;4.700;2022-08-01T08:52:28;3.12;;;2.90;;
17151;SDS011;8691;50.828;4.700;2022-08-01T08:54:55;5.15;;;2.95;;
17151;SDS011;8691;50.828;4.700;2022-08-01T08:57:23;3.25;;;2.95;;
17151;SDS011;8691;50.828;4.700;2022-08-01T08:59:50;3.28;;;2.80;;
17151;SDS011;8691;50.828;4.700;2022-08-01T09:02:17;2.95;;;2.55;;
17151;SDS011;8691;50.828;4.700;2022-08-01T09:04:44;3.00;;;2.80;;
17151;SDS011;8691;50.828;4.700;2022-08-01T09:07:11;3.55;;;3.25;;
17151;SDS011;8691;50.828;4.700;2022-08-01T09:09:39;3.33;;;3.03;;
17151;SDS011;8691;50.828;4.700;2022-08-01T09:12:05;2.90;;;2.63;;
17151;SDS011;8691;50.828;4.700;2022-08-01T09:14:32;3.17;;;2.88;;
17151;SDS011;8691;50.828;4.700;2022-08-01T09:19:45;3.12;;;2.92;;
17151;SDS011;8691;50.828;4.700;2022-08-01T09:22:05;2.95;;;2.72;;
17151;SDS011;8691;50.828;4.700;2022-08-01T09:24:30;3.58;;;2.90;;
17151;SDS011;8691;50.828;4.700;2022-08-01T09:26:57;2.65;;;2.45;;
17151;SDS011;8691;50.828;4.700;2022-08-01T09:29:28;3.70;;;3.00;;
17151;SDS011;8691;50.828;4.700;2022-08-01T09:31:54;3.22;;;2.92;;
17151;SDS011;8691;50.828;4.700;2022-08-01T09:34:24;4.03;;;3.55;;
17151;SDS011;8691;50.828;4.700;2022-08-01T09:36:51;3.42;;;2.90;;
17151;SDS011;8691;50.828;4.700;2022-08-01T09:39:18;3.10;;;2.80;;
17151;SDS011;8691;50.828;4.700;2022-08-01T09:41:45;3.73;;;3.33;;
17151;SDS011;8691;50.828;4.700;2022-08-01T09:44:12;3.90;;;3.00;;
17151;SDS011;8691;50.828;4.700;2022-08-01T09:46:49;3.28;;;3.00;;
17151;SDS011;8691;50.828;4.700;2022-08-01T09:49:32;2.70;;;2.50;;
17151;SDS011;8691;50.828;4.700;2022-08-01T09:51:58;3.45;;;2.60;;
17151;SDS011;8691;50.828;4.700;2022-08-01T09:54:32;3.40;;;2.60;;
17151;SDS011;8691;50.828;4.700;2022-08-01T09:59:38;2.08;;;1.88;;
17151;SDS011;8691;50.828;4.700;2022-08-01T10:02:04;2.20;;;1.80;;
17151;SDS011;8691;50.828;4.700;2022-08-01T10:04:31;1.80;;;1.70;;
17151;SDS011;8691;50.828;4.700;2022-08-01T10:07:05;2.05;;;1.60;;
17151;SDS011;8691;50.828;4.700;2022-08-01T10:09:32;1.97;;;1.60;;
17151;SDS011;8691;50.828;4.700;2022-08-01T10:11:59;2.53;;;1.90;;
17151;SDS011;8691;50.828;4.700;2022-08-01T10:14:26;2.97;;;1.77;;
17151;SDS011;8691;50.828;4.700;2022-08-01T10:16:53;2.58;;;1.80;;
17151;SDS011;8691;50.828;4.700;2022-08-01T10:19:23;1.60;;;1.50;;
17151;SDS011;8691;50.828;4.700;2022-08-01T10:21:53;1.50;;;1.40;;
17151;SDS011;8691;50.828;4.700;2022-08-01T10:24:20;1.98;;;1.50;;
17151;SDS011;8691;50.828;4.700;2022-08-01T10:27:07;2.43;;;1.33;;
17151;SDS011;8691;50.828;4.700;2022-08-01T10:29:16;2.35;;;1.50;;
17151;SDS011;8691;50.828;4.700;2022-08-01T10:31:46;2.00;;;1.90;;
17151;SDS011;8691;50.828;4.700;2022-08-01T10:34:14;1.70;;;1.60;;
17151;SDS011;8691;50.828;4.700;2022-08-01T10:36:44;2.38;;;2.10;;
17151;SDS011;8691;50.828;4.700;2022-08-01T10:39:11;2.60;;;1.83;;
17151;SDS011;8691;50.828;4.700;2022-08-01T10:41:38;2.85;;;1.70;;
17151;SDS011;8691;50.828;4.700;2022-08-01T10:44:08;2.43;;;1.83;;
17151;SDS011;8691;50.828;4.700;2022-08-01T10:46:37;2.70;;;1.90;;
17151;SDS011;8691;50.828;4.700;2022-08-01T10:49:12;1.70;;;1.60;;
17151;SDS011;8691;50.828;4.700;2022-08-01T10:51:38;1.70;;;1.50;;
17151;SDS011;8691;50.828;4.700;2022-08-01T10:54:06;2.87;;;2.20;;
17151;SDS011;8691;50.828;4.700;2022-08-01T10:57:05;1.90;;;1.70;;
17151;SDS011;8691;50.828;4.700;2022-08-01T10:59:14;1.95;;;1.85;;
17151;SDS011;8691;50.828;4.700;2022-08-01T11:01:37;1.70;;;1.58;;
17151;SDS011;8691;50.828;4.700;2022-08-01T11:09:04;2.45;;;1.70;;
17151;SDS011;8691;50.828;4.700;2022-08-01T11:11:30;3.30;;;1.58;;
17151;SDS011;8691;50.828;4.700;2022-08-01T11:16:25;2.22;;;1.60;;
17151;SDS011;8691;50.828;4.700;2022-08-01T11:18:52;3.37;;;1.50;;
17151;SDS011;8691;50.828;4.700;2022-08-01T11:21:19;1.90;;;1.55;;
17151;SDS011;8691;50.828;4.700;2022-08-01T11:23:50;1.85;;;1.40;;
17151;SDS011;8691;50.828;4.700;2022-08-01T11:26:16;1.80;;;1.70;;
17151;SDS011;8691;50.828;4.700;2022-08-01T11:28:43;1.92;;;1.70;;
17151;SDS011;8691;50.828;4.700;2022-08-01T11:38:38;1.60;;;1.50;;
17151;SDS011;8691;50.828;4.700;2022-08-01T11:41:11;1.50;;;1.33;;
17151;SDS011;8691;50.828;4.700;2022-08-01T11:49:27;1.88;;;1.77;;
17151;SDS011;8691;50.828;4.700;2022-08-01T11:52:12;2.42;;;1.75;;
17151;SDS011;8691;50.828;4.700;2022-08-01T11:54:40;1.40;;;1.30;;
17151;SDS011;8691;50.828;4.700;2022-08-01T11:57:07;1.65;;;1.27;;
17151;SDS011;8691;50.828;4.700;2022-08-01T11:59:37;1.58;;;1.10;;
17151;SDS011;8691;50.828;4.700;2022-08-01T12:02:03;1.90;;;1.20;;
17151;SDS011;8691;50.828;4.700;2022-08-01T12:04:46;1.70;;;1.13;;
17151;SDS011;8691;50.828;4.700;2022-08-01T12:07:15;2.00;;;1.10;;
17151;SDS011;8691;50.828;4.700;2022-08-01T12:09:43;1.67;;;1.20;;
17151;SDS011;8691;50.828;4.700;2022-08-01T12:12:10;1.52;;;0.90;;
17151;SDS011;8691;50.828;4.700;2022-08-01T12:14:37;1.25;;;0.90;;
17151;SDS011;8691;50.828;4.700;2022-08-01T12:17:05;1.55;;;0.93;;
17151;SDS011;8691;50.828;4.700;2022-08-01T12:19:32;2.38;;;1.20;;
17151;SDS011;8691;50.828;4.700;2022-08-01T12:22:11;1.48;;;0.82;;
17151;SDS011;8691;50.828;4.700;2022-08-01T12:24:40;1.67;;;1.08;;
17151;SDS011;8691;50.828;4.700;2022-08-01T12:27:07;2.00;;;0.80;;
17151;SDS011;8691;50.828;4.700;2022-08-01T12:29:40;0.88;;;0.70;;
17151;SDS011;8691;50.828;4.700;2022-08-01T12:34:50;1.42;;;0.70;;
17151;SDS011;8691;50.828;4.700;2022-08-01T12:37:16;3.00;;;0.63;;
17151;SDS011;8691;50.828;4.700;2022-08-01T12:39:43;1.33;;;0.67;;
17151;SDS011;8691;50.828;4.700;2022-08-01T12:42:10;1.15;;;0.55;;
17151;SDS011;8691;50.828;4.700;2022-08-01T12:44:37;2.25;;;0.70;;
17151;SDS011;8691;50.828;4.700;2022-08-01T12:47:04;2.63;;;0.80;;
17151;SDS011;8691;50.828;4.700;2022-08-01T12:49:31;3.57;;;0.70;;
17151;SDS011;8691;50.828;4.700;2022-08-01T12:51:59;1.60;;;0.60;;
17151;SDS011;8691;50.828;4.700;2022-08-01T12:54:26;0.98;;;0.60;;
17151;SDS011;8691;50.828;4.700;2022-08-01T12:56:53;1.08;;;0.57;;
17151;SDS011;8691;50.828;4.700;2022-08-01T12:59:24;1.00;;;0.70;;
17151;SDS011;8691;50.828;4.700;2022-08-01T13:01:54;2.08;;;0.60;;
17151;SDS011;8691;50.828;4.700;2022-08-01T13:04:21;1.52;;;0.65;;
17151;SDS011;8691;50.828;4.700;2022-08-01T13:06:54;1.88;;;0.77;;
17151;SDS011;8691;50.828;4.700;2022-08-01T13:09:21;2.33;;;0.90;;
17151;SDS011;8691;50.828;4.700;2022-08-01T13:11:49;3.08;;;0.52;;
17151;SDS011;8691;50.828;4.700;2022-08-01T13:14:28;1.80;;;0.60;;
17151;SDS011;8691;50.828;4.700;2022-08-01T13:16:55;3.22;;;0.70;;
17151;SDS011;8691;50.828;4.700;2022-08-01T13:19:40;1.57;;;0.80;;
17151;SDS011;8691;50.828;4.700;2022-08-01T13:21:56;2.25;;;0.70;;
17151;SDS011;8691;50.828;4.700;2022-08-01T13:24:26;1.60;;;0.77;;
17151;SDS011;8691;50.828;4.700;2022-08-01T13:26:53;1.37;;;0.63;;
17151;SDS011;8691;50.828;4.700;2022-08-01T13:29:22;1.27;;;0.70;;
17151;SDS011;8691;50.828;4.700;2022-08-01T13:31:48;1.70;;;0.80;;
17151;SDS011;8691;50.828;4.700;2022-08-01T13:34:15;1.80;;;0.60;;
17151;SDS011;8691;50.828;4.700;2022-08-01T13:36:42;1.55;;;0.70;;
17151;SDS011;8691;50.828;4.700;2022-08-01T13:39:10;1.53;;;0.70;;
17151;SDS011;8691;50.828;4.700;2022-08-01T13:41:55;1.35;;;0.70;;
17151;SDS011;8691;50.828;4.700;2022-08-01T13:44:22;2.97;;;0.80;;
17151;SDS011;8691;50.828;4.700;2022-08-01T13:46:50;2.03;;;0.73;;
17151;SDS011;8691;50.828;4.700;2022-08-01T13:49:16;1.43;;;0.80;;
17151;SDS011;8691;50.828;4.700;2022-08-01T13:51:43;1.30;;;0.70;;
17151;SDS011;8691;50.828;4.700;2022-08-01T13:54:10;1.58;;;0.73;;
17151;SDS011;8691;50.828;4.700;2022-08-01T13:56:37;1.40;;;0.70;;
17151;SDS011;8691;50.828;4.700;2022-08-01T13:59:04;2.60;;;0.63;;
17151;SDS011;8691;50.828;4.700;2022-08-01T14:01:31;1.88;;;0.77;;
17151;SDS011;8691;50.828;4.700;2022-08-01T14:03:59;1.10;;;0.60;;
17151;SDS011;8691;50.828;4.700;2022-08-01T14:06:26;1.33;;;0.70;;
17151;SDS011;8691;50.828;4.700;2022-08-01T14:08:53;0.97;;;0.50;;
17151;SDS011;8691;50.828;4.700;2022-08-01T14:11:20;1.23;;;0.70;;
17151;SDS011;8691;50.828;4.700;2022-08-01T14:13:47;1.93;;;0.80;;
17151;SDS011;8691;50.828;4.700;2022-08-01T14:16:14;2.10;;;0.60;;
17151;SDS011;8691;50.828;4.700;2022-08-01T14:18:40;1.38;;;0.73;;
17151;SDS011;8691;50.828;4.700;2022-08-01T14:21:07;1.60;;;1.08;;
17151;SDS011;8691;50.828;4.700;2022-08-01T14:23:34;1.73;;;0.70;;
17151;SDS011;8691;50.828;4.700;2022-08-01T14:26:01;2.33;;;0.85;;
17151;SDS011;8691;50.828;4.700;2022-08-01T14:28:29;1.60;;;0.70;;
17151;SDS011;8691;50.828;4.700;2022-08-01T14:30:57;1.50;;;0.70;;
17151;SDS011;8691;50.828;4.700;2022-08-01T14:33:23;2.53;;;0.60;;
17151;SDS011;8691;50.828;4.700;2022-08-01T14:35:50;1.17;;;0.62;;
17151;SDS011;8691;50.828;4.700;2022-08-01T14:38:17;1.10;;;0.70;;
17151;SDS011;8691;50.828;4.700;2022-08-01T14:40:44;1.50;;;0.70;;
17151;SDS011;8691;50.828;4.700;2022-08-01T14:43:11;1.27;;;0.60;;
17151;SDS011;8691;50.828;4.700;2022-08-01T14:45:38;1.95;;;0.80;;
17151;SDS011;8691;50.828;4.700;2022-08-01T14:48:04;1.57;;;0.73;;
17151;SDS011;8691;50.828;4.700;2022-08-01T14:50:32;3.67;;;0.80;;
17151;SDS011;8691;50.828;4.700;2022-08-01T14:52:58;1.87;;;0.80;;
17151;SDS011;8691;50.828;4.700;2022-08-01T14:55:26;1.33;;;0.65;;
17151;SDS011;8691;50.828;4.700;2022-08-01T14:57:52;1.80;;;0.70;;
17151;SDS011;8691;50.828;4.700;2022-08-01T15:00:19;1.70;;;0.70;;
17151;SDS011;8691;50.828;4.700;2022-08-01T15:02:46;1.93;;;0.80;;
17151;SDS011;8691;50.828;4.700;2022-08-01T15:05:13;3.23;;;0.80;;
17151;SDS011;8691;50.828;4.700;2022-08-01T15:07:41;1.20;;;0.88;;
17151;SDS011;8691;50.828;4.700;2022-08-01T15:10:07;2.47;;;1.00;;
17151;SDS011;8691;50.828;4.700;2022-08-01T15:12:34;1.30;;;0.70;;
17151;SDS011;8691;50.828;4.700;2022-08-01T15:15:02;1.43;;;0.73;;
17151;SDS011;8691;50.828;4.700;2022-08-01T15:17:29;2.43;;;0.80;;
17151;SDS011;8691;50.828;4.700;2022-08-01T15:19:56;2.90;;;0.73;;
17151;SDS011;8691;50.828;4.700;2022-08-01T15:22:23;2.40;;;0.60;;
17151;SDS011;8691;50.828;4.700;2022-08-01T15:24:50;1.50;;;0.80;;
17151;SDS011;8691;50.828;4.700;2022-08-01T15:27:17;1.23;;;0.88;;
17151;SDS011;8691;50.828;4.700;2022-08-01T15:29:44;2.10;;;0.63;;
17151;SDS011;8691;50.828;4.700;2022-08-01T15:32:11;1.60;;;0.70;;
17151;SDS011;8691;50.828;4.700;2022-08-01T15:34:37;2.87;;;0.90;;
17151;SDS011;8691;50.828;4.700;2022-08-01T15:37:05;0.97;;;0.60;;
17151;SDS011;8691;50.828;4.700;2022-08-01T15:39:32;2.07;;;0.70;;